Oberon — SKJF — position and weather

sailwx.info

Track history (hours):
 
Tides and Currents Weather Stations Pressure Air Temp Water Temp Dewpoint Dewpoint Depression Visibility Wind Speed Wind Dir Waves Ship Positions

Oberon

Last reported at 2018-Jul-14 14:05 UTC. Time now 2018-Jul-18 22:27 UTC.
Position N 09°12' W 079°55'.

Length 232 m; draft 9.4 m.

Type: Cargo ship. MMSI: 266283000.

Date/timePositionNaut miles runAvg speedWind from/ knotsBaromVisibWave heightAir tempDewpointWater temp
2018-Jul-14 14:05N 09°12' W 079°55'3 6.1
2018-Jul-14 13:31N 09°16' W 079°55'0 0.5
2018-Jul-14 13:00N 09°16' W 079°55'0 0.6
2018-Jul-14 12:30N 09°17' W 079°55'0 0.5
2018-Jul-14 12:01N 09°17' W 079°55'0 0.9
2018-Jul-14 11:30N 09°17' W 079°55'2 4.8
2018-Jul-14 11:01N 09°20' W 079°55'3 6.5
2018-Jul-14 10:30N 09°23' W 079°55'3 6.5
2018-Jul-14 10:01N 09°26' W 079°55'3 6.2
2018-Jul-14 09:31N 09°29' W 079°54'3 5.2
2018-Jul-14 09:00N 09°32' W 079°54'2 4.6
2018-Jul-14 08:30N 09°29' W 079°54'3 5.4
2018-Jul-14 08:00N 09°27' W 079°54'3 5.7
2018-Jul-14 07:31N 09°24' W 079°54'2 4.0
2018-Jul-14 07:00N 09°22' W 079°53'0 0.0
2018-Jul-14 06:30N 09°22' W 079°53'0 0.0
2018-Jul-14 05:58N 09°22' W 079°53'0 0.0
2018-Jul-14 05:28N 09°22' W 079°53'0 0.0
2018-Jul-14 04:58N 09°22' W 079°53'0 0.0
2018-Jul-14 04:28N 09°22' W 079°53'0 0.0
2018-Jul-14 03:58N 09°22' W 079°53'0 0.0
2018-Jul-14 03:28N 09°22' W 079°53'0 0.0
2018-Jul-14 02:58N 09°22' W 079°53'0 0.0
2018-Jul-14 02:28N 09°22' W 079°53'0 0.0
2018-Jul-14 01:58N 09°22' W 079°53'0 0.0
2018-Jul-14 01:28N 09°22' W 079°53'0 0.0
2018-Jul-14 00:58N 09°22' W 079°53'0 0.0
2018-Jul-14 00:28N 09°22' W 079°53'0 0.4
2018-Jul-14 00:00N 09°22' W 079°53'2 3.7
2018-Jul-13 23:30N 09°24' W 079°54'3 5.6
2018-Jul-13 23:00N 09°26' W 079°53'  
2018-Jul-10 05:49N 31°43' W 080°32'516.1
2018-Jul-10 05:30N 31°48' W 080°35'816.1
2018-Jul-10 05:00N 31°54' W 080°40'713.3
2018-Jul-10 04:30N 31°59' W 080°46'613.1
2018-Jul-10 04:00N 32°02' W 080°52'613.1
2018-Jul-10 03:30N 32°05' W 080°59'4 8.5
2018-Jul-10 03:00N 32°05' W 081°04'1 3.0
2018-Jul-10 02:30N 32°05' W 081°06'0 0.0
2018-Jul-10 01:55N 32°05' W 081°06'0 0.0
2018-Jul-10 01:25N 32°05' W 081°06'0 0.0
2018-Jul-10 00:55N 32°05' W 081°06'0 0.0
2018-Jul-10 00:19N 32°05' W 081°06'0 0.0
2018-Jul-09 23:49N 32°05' W 081°06'0 0.0
2018-Jul-09 23:25N 32°05' W 081°06'0 0.0
2018-Jul-09 22:55N 32°05' W 081°06'0 0.0
2018-Jul-09 22:25N 32°05' W 081°06'0 0.0
2018-Jul-09 21:55N 32°05' W 081°06'0 0.0
2018-Jul-09 21:25N 32°05' W 081°06'0 0.0
2018-Jul-09 20:49N 32°05' W 081°06'0 0.0
2018-Jul-09 20:25N 32°05' W 081°06'0 0.0
2018-Jul-09 19:55N 32°05' W 081°06'0 0.0
2018-Jul-09 19:25N 32°05' W 081°06'0 0.0
2018-Jul-09 18:55N 32°05' W 081°06'0 0.0
2018-Jul-09 18:25N 32°05' W 081°06'0 0.0
2018-Jul-09 17:55N 32°05' W 081°06'0 0.0
2018-Jul-09 17:25N 32°05' W 081°06'0 0.1
2018-Jul-09 17:00N 32°05' W 081°06'2 4.8
2018-Jul-09 16:30N 32°07' W 081°08'1 1.1
2018-Jul-09 16:00N 32°08' W 081°08'2 4.3
2018-Jul-09 15:30N 32°06' W 081°07'2 4.1
2018-Jul-09 15:00N 32°05' W 081°05'2 4.9
2018-Jul-09 14:30N 32°05' W 081°02'4 7.7
2018-Jul-09 14:00N 32°04' W 080°57'4 7.8
2018-Jul-09 13:29N 32°02' W 080°53'4 9.3
2018-Jul-09 13:00N 32°01' W 080°48'612.2
2018-Jul-09 12:30N 31°57' W 080°42'5 9.3
2018-Jul-09 12:00N 31°56' W 080°37'3 6.5
2018-Jul-09 11:30N 31°55' W 080°33'611.9
2018-Jul-09 11:00N 31°56' W 080°26'40712.8
2018-Jul-08 03:17N 37°45' W 076°11'517.5
2018-Jul-08 03:00N 37°50' W 076°11'816.1
2018-Jul-08 02:29N 37°58' W 076°11'816.4
2018-Jul-08 02:00N 38°06' W 076°13'3616.4
2018-Jul-07 23:48N 38°41' W 076°25'517.3
2018-Jul-07 23:30N 38°46' W 076°26'917.8
2018-Jul-07 23:01N 38°55' W 076°24'816.2
2018-Jul-07 22:30N 39°03' W 076°23'714.3
2018-Jul-07 22:01N 39°10' W 076°25'611.7
2018-Jul-07 21:31N 39°13' W 076°32'3 6.5
2018-Jul-07 21:00N 39°15' W 076°35'0 0.0
2018-Jul-07 20:29N 39°15' W 076°35'0 0.0
2018-Jul-07 19:59N 39°15' W 076°35'0 0.0
2018-Jul-07 19:29N 39°15' W 076°35'0 0.0
2018-Jul-07 18:59N 39°15' W 076°35'0 0.0
2018-Jul-07 18:29N 39°15' W 076°35'0 0.0
2018-Jul-07 17:59N 39°15' W 076°35'0 0.0
2018-Jul-07 17:29N 39°15' W 076°35'0 0.0
2018-Jul-07 16:59N 39°15' W 076°35'0 0.0
2018-Jul-07 16:29N 39°15' W 076°35'0 0.0
2018-Jul-07 15:59N 39°15' W 076°35'0 0.0
2018-Jul-07 15:29N 39°15' W 076°35'0 0.0
2018-Jul-07 14:59N 39°15' W 076°35'0 0.0
2018-Jul-07 14:29N 39°15' W 076°35'0 0.0
2018-Jul-07 13:59N 39°15' W 076°35'0 0.0
2018-Jul-07 13:29N 39°15' W 076°35'0 0.0
2018-Jul-07 12:59N 39°15' W 076°35'0 0.0
2018-Jul-07 12:26N 39°15' W 076°35'0 0.0
2018-Jul-07 11:59N 39°15' W 076°35'0 0.0
2018-Jul-07 11:29N 39°15' W 076°35'0 0.0
2018-Jul-07 10:59N 39°15' W 076°35'0 0.0
2018-Jul-07 10:29N 39°15' W 076°35'0 0.0
2018-Jul-07 09:59N 39°15' W 076°35'0 0.0
2018-Jul-07 09:29N 39°15' W 076°35'0 0.0
2018-Jul-07 08:59N 39°15' W 076°35'0 0.0
2018-Jul-07 08:29N 39°15' W 076°35'0 0.0
2018-Jul-07 07:56N 39°15' W 076°35'0 0.0
2018-Jul-07 07:29N 39°15' W 076°35'0 0.0
2018-Jul-07 06:59N 39°15' W 076°35'0 0.0
2018-Jul-07 06:29N 39°15' W 076°35'0 0.0
2018-Jul-07 05:59N 39°15' W 076°35'0 0.0
2018-Jul-07 05:29N 39°15' W 076°35'0 0.0
2018-Jul-07 04:59N 39°15' W 076°35'0 0.5
2018-Jul-07 04:29N 39°15' W 076°35'1 2.1
2018-Jul-07 04:01N 39°15' W 076°34'1 1.8
2018-Jul-07 03:28N 39°15' W 076°32'0 0.0
2018-Jul-07 02:58N 39°15' W 076°32'0 0.0
2018-Jul-07 02:28N 39°15' W 076°32'0 0.0
2018-Jul-07 02:01N 39°15' W 076°32'0 0.0
2018-Jul-07 01:28N 39°15' W 076°32'0 0.0
2018-Jul-07 01:01N 39°15' W 076°32'0 0.0
2018-Jul-07 00:31N 39°15' W 076°32'0 0.0
2018-Jul-07 00:01N 39°15' W 076°32'0 0.0
2018-Jul-06 23:28N 39°15' W 076°32'0 0.0
2018-Jul-06 23:01N 39°15' W 076°32'0 0.0
2018-Jul-06 22:31N 39°15' W 076°32'0 0.0
2018-Jul-06 21:58N 39°15' W 076°32'0 0.0
2018-Jul-06 21:31N 39°15' W 076°32'0 0.0
2018-Jul-06 20:58N 39°15' W 076°32'0 0.0
2018-Jul-06 20:31N 39°15' W 076°32'0 0.0
2018-Jul-06 20:01N 39°15' W 076°32'0 0.0
2018-Jul-06 19:31N 39°15' W 076°32'0 0.0
2018-Jul-06 18:58N 39°15' W 076°32'0 0.0
2018-Jul-06 18:31N 39°15' W 076°32'0 0.0
2018-Jul-06 18:01N 39°15' W 076°32'0 0.0
2018-Jul-06 17:31N 39°15' W 076°32'0 0.0
2018-Jul-06 17:01N 39°15' W 076°32'0 0.0
2018-Jul-06 16:31N 39°15' W 076°32'0 0.0
2018-Jul-06 16:01N 39°15' W 076°32'0 0.0
2018-Jul-06 15:31N 39°15' W 076°32'0 0.0
2018-Jul-06 15:01N 39°15' W 076°32'0 0.0
2018-Jul-06 14:31N 39°15' W 076°32'0 0.0
2018-Jul-06 14:01N 39°15' W 076°32'0 0.0
2018-Jul-06 13:31N 39°15' W 076°32'0 0.0
2018-Jul-06 13:01N 39°15' W 076°32'0 0.0
2018-Jul-06 12:31N 39°15' W 076°32'0 0.0
2018-Jul-06 12:01N 39°15' W 076°32'0 0.0
2018-Jul-06 11:31N 39°15' W 076°32'0 0.0
2018-Jul-06 11:01N 39°15' W 076°32'0 0.0
2018-Jul-06 10:31N 39°15' W 076°32'0 0.0
2018-Jul-06 10:01N 39°15' W 076°32'0 0.0
2018-Jul-06 09:31N 39°15' W 076°32'1 1.7
2018-Jul-06 09:00N 39°14' W 076°33'4 7.9
2018-Jul-06 08:30N 39°11' W 076°28'611.9
2018-Jul-06 08:00N 39°07' W 076°24'815.9
2018-Jul-06 07:30N 38°59' W 076°23'917.8
2018-Jul-06 07:01N 38°50' W 076°24'917.7
2018-Jul-06 06:30N 38°41' W 076°25'817.3
2018-Jul-06 06:00N 38°33' W 076°25'4217.6
2018-Jul-06 03:37N 37°52' W 076°09'217.7
2018-Jul-06 03:30N 37°50' W 076°10'1916.0
2018-Jul-06 02:18N 37°32' W 076°02'516.7
2018-Jul-06 02:00N 37°28' W 076°04'  
Track history (hours):
 
Tides and Currents Weather Stations Pressure Air Temp Water Temp Dewpoint Dewpoint Depression Visibility Wind Speed Wind Dir Waves Ship Positions

Oberon

Last reported at 2018-Jul-14 14:05 UTC. Time now 2018-Jul-18 22:27 UTC.
Position N 09°12' W 079°55'.

Length 232 m; draft 9.4 m.

Type: Cargo ship. MMSI: 266283000.

Date/timePositionNaut miles runAvg speedWind from/ knotsBaromVisibWave heightAir tempDewpointWater temp
2018-Jul-14 14:05N 09°12' W 079°55'3 6.1
2018-Jul-14 13:31N 09°16' W 079°55'0 0.5
2018-Jul-14 13:00N 09°16' W 079°55'0 0.6
2018-Jul-14 12:30N 09°17' W 079°55'0 0.5
2018-Jul-14 12:01N 09°17' W 079°55'0 0.9
2018-Jul-14 11:30N 09°17' W 079°55'2 4.8
2018-Jul-14 11:01N 09°20' W 079°55'3 6.5
2018-Jul-14 10:30N 09°23' W 079°55'3 6.5
2018-Jul-14 10:01N 09°26' W 079°55'3 6.2
2018-Jul-14 09:31N 09°29' W 079°54'3 5.2
2018-Jul-14 09:00N 09°32' W 079°54'2 4.6
2018-Jul-14 08:30N 09°29' W 079°54'3 5.4
2018-Jul-14 08:00N 09°27' W 079°54'3 5.7
2018-Jul-14 07:31N 09°24' W 079°54'2 4.0
2018-Jul-14 07:00N 09°22' W 079°53'0 0.0
2018-Jul-14 06:30N 09°22' W 079°53'0 0.0
2018-Jul-14 05:58N 09°22' W 079°53'0 0.0
2018-Jul-14 05:28N 09°22' W 079°53'0 0.0
2018-Jul-14 04:58N 09°22' W 079°53'0 0.0
2018-Jul-14 04:28N 09°22' W 079°53'0 0.0
2018-Jul-14 03:58N 09°22' W 079°53'0 0.0
2018-Jul-14 03:28N 09°22' W 079°53'0 0.0
2018-Jul-14 02:58N 09°22' W 079°53'0 0.0
2018-Jul-14 02:28N 09°22' W 079°53'0 0.0
2018-Jul-14 01:58N 09°22' W 079°53'0 0.0
2018-Jul-14 01:28N 09°22' W 079°53'0 0.0
2018-Jul-14 00:58N 09°22' W 079°53'0 0.0
2018-Jul-14 00:28N 09°22' W 079°53'0 0.4
2018-Jul-14 00:00N 09°22' W 079°53'2 3.7
2018-Jul-13 23:30N 09°24' W 079°54'3 5.6
2018-Jul-13 23:00N 09°26' W 079°53'  
2018-Jul-10 05:49N 31°43' W 080°32'516.1
2018-Jul-10 05:30N 31°48' W 080°35'816.1
2018-Jul-10 05:00N 31°54' W 080°40'713.3
2018-Jul-10 04:30N 31°59' W 080°46'613.1
2018-Jul-10 04:00N 32°02' W 080°52'613.1
2018-Jul-10 03:30N 32°05' W 080°59'4 8.5
2018-Jul-10 03:00N 32°05' W 081°04'1 3.0
2018-Jul-10 02:30N 32°05' W 081°06'0 0.0
2018-Jul-10 01:55N 32°05' W 081°06'0 0.0
2018-Jul-10 01:25N 32°05' W 081°06'0 0.0
2018-Jul-10 00:55N 32°05' W 081°06'0 0.0
2018-Jul-10 00:19N 32°05' W 081°06'0 0.0
2018-Jul-09 23:49N 32°05' W 081°06'0 0.0
2018-Jul-09 23:25N 32°05' W 081°06'0 0.0
2018-Jul-09 22:55N 32°05' W 081°06'0 0.0
2018-Jul-09 22:25N 32°05' W 081°06'0 0.0
2018-Jul-09 21:55N 32°05' W 081°06'0 0.0
2018-Jul-09 21:25N 32°05' W 081°06'0 0.0
2018-Jul-09 20:49N 32°05' W 081°06'0 0.0
2018-Jul-09 20:25N 32°05' W 081°06'0 0.0
2018-Jul-09 19:55N 32°05' W 081°06'0 0.0
2018-Jul-09 19:25N 32°05' W 081°06'0 0.0
2018-Jul-09 18:55N 32°05' W 081°06'0 0.0
2018-Jul-09 18:25N 32°05' W 081°06'0 0.0
2018-Jul-09 17:55N 32°05' W 081°06'0 0.0
2018-Jul-09 17:25N 32°05' W 081°06'0 0.1
2018-Jul-09 17:00N 32°05' W 081°06'2 4.8
2018-Jul-09 16:30N 32°07' W 081°08'1 1.1
2018-Jul-09 16:00N 32°08' W 081°08'2 4.3
2018-Jul-09 15:30N 32°06' W 081°07'2 4.1
2018-Jul-09 15:00N 32°05' W 081°05'2 4.9
2018-Jul-09 14:30N 32°05' W 081°02'4 7.7
2018-Jul-09 14:00N 32°04' W 080°57'4 7.8
2018-Jul-09 13:29N 32°02' W 080°53'4 9.3
2018-Jul-09 13:00N 32°01' W 080°48'612.2
2018-Jul-09 12:30N 31°57' W 080°42'5 9.3
2018-Jul-09 12:00N 31°56' W 080°37'3 6.5
2018-Jul-09 11:30N 31°55' W 080°33'611.9
2018-Jul-09 11:00N 31°56' W 080°26'40712.8
2018-Jul-08 03:17N 37°45' W 076°11'517.5
2018-Jul-08 03:00N 37°50' W 076°11'816.1
2018-Jul-08 02:29N 37°58' W 076°11'816.4
2018-Jul-08 02:00N 38°06' W 076°13'3616.4
2018-Jul-07 23:48N 38°41' W 076°25'517.3
2018-Jul-07 23:30N 38°46' W 076°26'917.8
2018-Jul-07 23:01N 38°55' W 076°24'816.2
2018-Jul-07 22:30N 39°03' W 076°23'714.3
2018-Jul-07 22:01N 39°10' W 076°25'611.7
2018-Jul-07 21:31N 39°13' W 076°32'3 6.5
2018-Jul-07 21:00N 39°15' W 076°35'0 0.0
2018-Jul-07 20:29N 39°15' W 076°35'0 0.0
2018-Jul-07 19:59N 39°15' W 076°35'0 0.0
2018-Jul-07 19:29N 39°15' W 076°35'0 0.0
2018-Jul-07 18:59N 39°15' W 076°35'0 0.0
2018-Jul-07 18:29N 39°15' W 076°35'0 0.0
2018-Jul-07 17:59N 39°15' W 076°35'0 0.0
2018-Jul-07 17:29N 39°15' W 076°35'0 0.0
2018-Jul-07 16:59N 39°15' W 076°35'0 0.0
2018-Jul-07 16:29N 39°15' W 076°35'0 0.0
2018-Jul-07 15:59N 39°15' W 076°35'0 0.0
2018-Jul-07 15:29N 39°15' W 076°35'0 0.0
2018-Jul-07 14:59N 39°15' W 076°35'0 0.0
2018-Jul-07 14:29N 39°15' W 076°35'0 0.0
2018-Jul-07 13:59N 39°15' W 076°35'0 0.0
2018-Jul-07 13:29N 39°15' W 076°35'0 0.0
2018-Jul-07 12:59N 39°15' W 076°35'0 0.0
2018-Jul-07 12:26N 39°15' W 076°35'0 0.0
2018-Jul-07 11:59N 39°15' W 076°35'0 0.0
2018-Jul-07 11:29N 39°15' W 076°35'0 0.0
2018-Jul-07 10:59N 39°15' W 076°35'0 0.0
2018-Jul-07 10:29N 39°15' W 076°35'0 0.0
2018-Jul-07 09:59N 39°15' W 076°35'0 0.0
2018-Jul-07 09:29N 39°15' W 076°35'0 0.0
2018-Jul-07 08:59N 39°15' W 076°35'0 0.0
2018-Jul-07 08:29N 39°15' W 076°35'0 0.0
2018-Jul-07 07:56N 39°15' W 076°35'0 0.0
2018-Jul-07 07:29N 39°15' W 076°35'0 0.0
2018-Jul-07 06:59N 39°15' W 076°35'0 0.0
2018-Jul-07 06:29N 39°15' W 076°35'0 0.0
2018-Jul-07 05:59N 39°15' W 076°35'0 0.0
2018-Jul-07 05:29N 39°15' W 076°35'0 0.0
2018-Jul-07 04:59N 39°15' W 076°35'0 0.5
2018-Jul-07 04:29N 39°15' W 076°35'1 2.1
2018-Jul-07 04:01N 39°15' W 076°34'1 1.8
2018-Jul-07 03:28N 39°15' W 076°32'0 0.0
2018-Jul-07 02:58N 39°15' W 076°32'0 0.0
2018-Jul-07 02:28N 39°15' W 076°32'0 0.0
2018-Jul-07 02:01N 39°15' W 076°32'0 0.0
2018-Jul-07 01:28N 39°15' W 076°32'0 0.0
2018-Jul-07 01:01N 39°15' W 076°32'0 0.0
2018-Jul-07 00:31N 39°15' W 076°32'0 0.0
2018-Jul-07 00:01N 39°15' W 076°32'0 0.0
2018-Jul-06 23:28N 39°15' W 076°32'0 0.0
2018-Jul-06 23:01N 39°15' W 076°32'0 0.0
2018-Jul-06 22:31N 39°15' W 076°32'0 0.0
2018-Jul-06 21:58N 39°15' W 076°32'0 0.0
2018-Jul-06 21:31N 39°15' W 076°32'0 0.0
2018-Jul-06 20:58N 39°15' W 076°32'0 0.0
2018-Jul-06 20:31N 39°15' W 076°32'0 0.0
2018-Jul-06 20:01N 39°15' W 076°32'0 0.0
2018-Jul-06 19:31N 39°15' W 076°32'0 0.0
2018-Jul-06 18:58N 39°15' W 076°32'0 0.0
2018-Jul-06 18:31N 39°15' W 076°32'0 0.0
2018-Jul-06 18:01N 39°15' W 076°32'0 0.0
2018-Jul-06 17:31N 39°15' W 076°32'0 0.0
2018-Jul-06 17:01N 39°15' W 076°32'0 0.0
2018-Jul-06 16:31N 39°15' W 076°32'0 0.0
2018-Jul-06 16:01N 39°15' W 076°32'0 0.0
2018-Jul-06 15:31N 39°15' W 076°32'0 0.0
2018-Jul-06 15:01N 39°15' W 076°32'0 0.0
2018-Jul-06 14:31N 39°15' W 076°32'0 0.0
2018-Jul-06 14:01N 39°15' W 076°32'0 0.0
2018-Jul-06 13:31N 39°15' W 076°32'0 0.0
2018-Jul-06 13:01N 39°15' W 076°32'0 0.0
2018-Jul-06 12:31N 39°15' W 076°32'0 0.0
2018-Jul-06 12:01N 39°15' W 076°32'0 0.0
2018-Jul-06 11:31N 39°15' W 076°32'0 0.0
2018-Jul-06 11:01N 39°15' W 076°32'0 0.0
2018-Jul-06 10:31N 39°15' W 076°32'0 0.0
2018-Jul-06 10:01N 39°15' W 076°32'0 0.0
2018-Jul-06 09:31N 39°15' W 076°32'1 1.7
2018-Jul-06 09:00N 39°14' W 076°33'4 7.9
2018-Jul-06 08:30N 39°11' W 076°28'611.9
2018-Jul-06 08:00N 39°07' W 076°24'815.9
2018-Jul-06 07:30N 38°59' W 076°23'917.8
2018-Jul-06 07:01N 38°50' W 076°24'917.7
2018-Jul-06 06:30N 38°41' W 076°25'817.3
2018-Jul-06 06:00N 38°33' W 076°25'4217.6
2018-Jul-06 03:37N 37°52' W 076°09'217.7
2018-Jul-06 03:30N 37°50' W 076°10'1916.0
2018-Jul-06 02:18N 37°32' W 076°02'516.7
2018-Jul-06 02:00N 37°28' W 076°04'  

Dump ship's entire track history